Time;durP1;ratioP1;P1;durP2;ratioP2;P2;SDS_P1;SDS_P2;PMS_P1;PMS_P2;Temp;Humidity;BMP_temperature;BMP_pressure;BME280_temperature;BME280_humidity;BME280_pressure;Samples;Min_cycle;Max_cycle;Signal;HPM_P1;HPM_P2
2022/12/28 00:01:36;;;;;;;20.10;9.35;;;3.60;99.90;;;;;;4362138;28;10000469;-71
2022/12/28 00:04:05;;;;;;;16.13;7.72;;;3.60;99.90;;;;;;5050549;28;20033;-71
2022/12/28 00:06:33;;;;;;;20.15;7.82;;;3.60;99.90;;;;;;5057034;28;20035;-71
2022/12/28 00:08:59;;;;;;;17.65;7.03;;;3.60;99.90;;;;;;5068447;28;20510;-71
2022/12/28 00:11:26;;;;;;;19.50;7.55;;;3.60;99.90;;;;;;5060107;28;20052;-71
2022/12/28 00:13:52;;;;;;;16.02;6.63;;;3.60;99.90;;;;;;5061134;28;20086;-71
2022/12/28 00:16:26;;;;;;;17.70;6.63;;;3.70;99.90;;;;;;5058686;28;20031;-71
2022/12/28 00:18:53;;;;;;;16.95;6.20;;;3.70;99.90;;;;;;5066236;28;20032;-71
2022/12/28 00:21:18;;;;;;;15.07;6.68;;;3.80;99.90;;;;;;5066917;28;20037;-71
2022/12/28 00:23:46;;;;;;;17.70;6.60;;;3.80;99.90;;;;;;5063053;28;20039;-71
2022/12/28 00:26:12;;;;;;;15.75;6.43;;;3.90;99.90;;;;;;5056014;28;20031;-71
2022/12/28 00:28:39;;;;;;;18.00;6.50;;;3.90;99.90;;;;;;5061037;28;20111;-71
2022/12/28 00:31:05;;;;;;;13.90;6.70;;;4.00;99.90;;;;;;5064476;28;20032;-71
2022/12/28 00:33:31;;;;;;;17.98;6.43;;;4.00;99.90;;;;;;5057172;28;20090;-72
2022/12/28 00:35:58;;;;;;;16.52;6.35;;;4.00;99.90;;;;;;5062764;28;20025;-71
2022/12/28 00:38:25;;;;;;;13.98;6.30;;;4.00;99.90;;;;;;5069575;28;20039;-72
2022/12/28 00:40:50;;;;;;;15.02;5.93;;;4.00;99.90;;;;;;5052109;28;20031;-71
2022/12/28 00:43:16;;;;;;;12.35;5.53;;;4.00;99.90;;;;;;5059956;28;20024;-71
2022/12/28 00:45:46;;;;;;;13.32;5.75;;;4.10;99.90;;;;;;5066989;28;20056;-71
2022/12/28 00:48:12;;;;;;;13.07;5.50;;;4.10;99.90;;;;;;5056193;28;20484;-71
2022/12/28 00:50:39;;;;;;;11.95;5.40;;;4.10;99.90;;;;;;5053331;28;20117;-71
2022/12/28 00:53:04;;;;;;;18.73;5.82;;;4.10;99.90;;;;;;5061850;28;20087;-71
2022/12/28 00:55:31;;;;;;;10.27;5.57;;;4.10;99.90;;;;;;5059064;28;20099;-71
2022/12/28 00:57:58;;;;;;;16.25;5.75;;;4.20;99.90;;;;;;5063221;28;20027;-71
2022/12/28 01:00:24;;;;;;;17.80;5.70;;;4.20;99.90;;;;;;5066161;28;20649;-71
2022/12/28 01:02:49;;;;;;;14.90;5.55;;;4.20;99.90;;;;;;5056627;28;20124;-71
2022/12/28 01:05:15;;;;;;;12.38;5.13;;;4.20;99.90;;;;;;5060602;28;20032;-71
2022/12/28 01:07:40;;;;;;;17.75;7.22;;;4.30;99.90;;;;;;5059211;28;20035;-71
2022/12/28 01:10:06;;;;;;;15.65;5.85;;;4.30;99.90;;;;;;5062004;28;20546;-71
2022/12/28 01:12:32;;;;;;;16.50;5.72;;;4.30;99.90;;;;;;5063771;28;20027;-71
2022/12/28 01:14:58;;;;;;;11.38;5.82;;;4.30;99.90;;;;;;5065279;28;20020;-71
2022/12/28 01:17:23;;;;;;;11.38;5.38;;;4.30;99.90;;;;;;5060547;28;20033;-71
2022/12/28 01:19:49;;;;;;;13.77;5.75;;;4.30;99.90;;;;;;5058168;28;20024;-72
2022/12/28 01:22:14;;;;;;;15.90;5.40;;;4.30;99.90;;;;;;5060962;28;20387;-71
2022/12/28 01:24:40;;;;;;;13.02;5.68;;;4.30;99.90;;;;;;5054557;28;20380;-71
2022/12/28 01:27:06;;;;;;;11.13;5.30;;;4.30;99.90;;;;;;5053952;28;20028;-71
2022/12/28 01:29:31;;;;;;;10.52;5.07;;;4.30;99.90;;;;;;5057525;28;20059;-72
2022/12/28 01:31:57;;;;;;;15.75;5.32;;;4.30;99.90;;;;;;5062586;28;22143;-71
2022/12/28 01:34:22;;;;;;;12.80;5.20;;;4.30;99.90;;;;;;5056855;28;20693;-72
2022/12/28 01:36:48;;;;;;;11.98;4.85;;;4.40;99.90;;;;;;5059184;28;20079;-72
2022/12/28 01:39:13;;;;;;;10.18;4.55;;;4.40;99.90;;;;;;5058989;28;20021;-72
2022/12/28 01:41:41;;;;;;;9.45;4.88;;;4.40;99.90;;;;;;5058700;28;20040;-71
2022/12/28 01:44:06;;;;;;;13.65;4.72;;;4.40;99.90;;;;;;5055751;28;20047;-71
2022/12/28 01:46:59;;;;;;;12.00;4.63;;;4.40;99.90;;;;;;5064127;28;20042;-71
2022/12/28 01:50:00;;;;;;;13.15;4.40;;;4.40;99.90;;;;;;5068810;28;20029;-71
2022/12/28 01:52:31;;;;;;;13.35;5.05;;;4.40;99.90;;;;;;5038940;28;20032;-71
2022/12/28 01:55:01;;;;;;;14.40;5.20;;;4.40;99.90;;;;;;5057327;28;20118;-71
2022/12/28 01:57:31;;;;;;;10.88;4.97;;;4.40;99.90;;;;;;5063527;28;20048;-72
2022/12/28 02:00:02;;;;;;;11.93;4.80;;;4.40;99.90;;;;;;5058885;28;20036;-71
2022/12/28 02:02:29;;;;;;;11.35;5.18;;;4.40;99.90;;;;;;5055328;28;20024;-71
2022/12/28 02:04:57;;;;;;;11.85;5.00;;;4.40;99.90;;;;;;5061533;28;20020;-71
2022/12/28 02:07:47;;;;;;;15.63;4.88;;;4.40;99.90;;;;;;5053301;28;20029;-71
2022/12/28 02:10:14;;;;;;;13.00;5.20;;;4.40;99.90;;;;;;5065633;28;20035;-71
2022/12/28 02:12:40;;;;;;;10.85;5.13;;;4.40;99.90;;;;;;5061711;28;20052;-71
2022/12/28 02:15:06;;;;;;;12.10;5.38;;;4.40;99.90;;;;;;5064589;28;20571;-71
2022/12/28 02:17:33;;;;;;;13.30;5.85;;;4.40;99.90;;;;;;5060830;28;20035;-71
2022/12/28 02:19:59;;;;;;;10.50;5.43;;;4.40;99.90;;;;;;5058436;28;20029;-71
2022/12/28 02:22:51;;;;;;;13.30;5.20;;;4.40;99.90;;;;;;5067927;28;20028;-71
2022/12/28 02:25:28;;;;;;;12.65;5.57;;;4.40;99.90;;;;;;5057078;28;20040;-71
2022/12/28 02:28:12;;;;;;;11.27;5.82;;;4.40;99.90;;;;;;5050908;28;20488;-71
2022/12/28 02:30:59;;;;;;;10.75;5.60;;;4.40;99.90;;;;;;5061519;28;20103;-71
2022/12/28 02:33:58;;;;;;;15.07;6.28;;;4.50;99.90;;;;;;5054202;28;20012;-71
2022/12/28 02:36:33;;;;;;;15.93;6.63;;;4.50;99.90;;;;;;5062449;28;20538;-71
2022/12/28 02:39:07;;;;;;;13.85;6.78;;;4.50;99.90;;;;;;5058915;28;20078;-71
2022/12/28 02:41:33;;;;;;;13.13;6.63;;;4.50;99.90;;;;;;5061932;28;20447;-71
2022/12/28 02:43:59;;;;;;;17.00;7.03;;;4.40;99.90;;;;;;5055248;28;20040;-71
2022/12/28 02:52:18;;;;;;;14.77;7.10;;;4.50;99.90;;;;;;5052488;28;20040;-71
2022/12/28 02:58:13;;;;;;;15.68;8.18;;;4.50;99.90;;;;;;5025437;28;20698;-71
2022/12/28 03:00:49;;;;;;;19.63;8.70;;;4.50;99.90;;;;;;5066383;28;20081;-71
2022/12/28 03:03:27;;;;;;;16.35;8.88;;;4.50;99.90;;;;;;5060332;28;20029;-71
2022/12/28 03:09:10;;;;;;;14.82;7.88;;;4.50;99.90;;;;;;5062401;28;20476;-72
2022/12/28 03:11:53;;;;;;;17.15;8.63;;;4.50;99.90;;;;;;5058670;28;20170;-71
2022/12/28 03:14:26;;;;;;;19.45;8.98;;;4.50;99.90;;;;;;5064505;28;20047;-71
2022/12/28 03:31:02;;;;;;;15.40;8.73;;;4.50;99.90;;;;;;5055501;28;20031;-71
2022/12/28 03:33:28;;;;;;;23.15;8.90;;;4.50;99.90;;;;;;5054003;28;20031;-71
2022/12/28 03:35:56;;;;;;;16.65;9.23;;;4.50;99.90;;;;;;5060204;28;20025;-71
2022/12/28 03:38:33;;;;;;;16.50;8.93;;;4.50;99.90;;;;;;5061550;28;20059;-71
2022/12/28 03:41:08;;;;;;;21.27;9.55;;;4.50;99.90;;;;;;5064910;28;20753;-71
2022/12/28 03:43:45;;;;;;;20.00;9.40;;;4.50;99.90;;;;;;5060194;28;20025;-71
2022/12/28 03:46:38;;;;;;;20.70;10.00;;;4.50;99.90;;;;;;5058505;28;20063;-71
2022/12/28 03:49:04;;;;;;;15.18;9.43;;;4.60;99.90;;;;;;5058649;28;20054;-71
2022/12/28 03:51:31;;;;;;;16.33;8.75;;;4.60;99.90;;;;;;5058439;28;20029;-71
2022/12/28 03:53:57;;;;;;;13.77;9.27;;;4.60;99.90;;;;;;5056143;28;20020;-71
2022/12/28 03:56:25;;;;;;;19.13;9.70;;;4.60;99.90;;;;;;5060129;28;20221;-71
2022/12/28 03:58:51;;;;;;;20.45;9.90;;;4.60;99.90;;;;;;5066910;28;20033;-71
2022/12/28 04:01:17;;;;;;;16.98;9.60;;;4.60;99.90;;;;;;5065674;28;20060;-71
2022/12/28 04:03:43;;;;;;;14.40;8.90;;;4.60;99.90;;;;;;5053385;28;20035;-71
2022/12/28 04:06:14;;;;;;;16.67;9.52;;;4.60;99.90;;;;;;5051142;28;20627;-71
2022/12/28 04:08:40;;;;;;;16.63;9.60;;;4.60;99.90;;;;;;5061553;28;20047;-71
2022/12/28 04:11:06;;;;;;;17.50;9.98;;;4.60;99.90;;;;;;5064811;28;20037;-71
2022/12/28 04:13:32;;;;;;;18.20;9.68;;;4.60;99.90;;;;;;5061364;28;20031;-71
2022/12/28 04:16:00;;;;;;;19.55;10.35;;;4.60;99.90;;;;;;5060896;28;20109;-71
2022/12/28 04:18:26;;;;;;;18.10;10.25;;;4.60;99.90;;;;;;5054620;28;20039;-71
2022/12/28 04:20:52;;;;;;;20.13;10.57;;;4.60;99.90;;;;;;5057632;28;20028;-71
2022/12/28 04:23:17;;;;;;;17.92;10.82;;;4.60;99.90;;;;;;5063287;28;20090;-71
2022/12/28 04:25:43;;;;;;;19.02;10.80;;;4.60;99.90;;;;;;5062174;28;20119;-71
2022/12/28 04:28:09;;;;;;;19.90;10.68;;;4.60;99.90;;;;;;5063311;28;20438;-71
2022/12/28 04:30:34;;;;;;;18.73;10.75;;;4.60;99.90;;;;;;5061471;28;20024;-71
2022/12/28 04:33:00;;;;;;;19.05;10.80;;;4.70;99.90;;;;;;5066798;28;20017;-71
2022/12/28 04:35:25;;;;;;;18.25;9.85;;;4.70;99.90;;;;;;5058381;28;20561;-71
2022/12/28 04:37:51;;;;;;;16.30;10.68;;;4.60;99.90;;;;;;5053889;28;20385;-71
2022/12/28 04:40:16;;;;;;;18.90;10.93;;;4.60;99.90;;;;;;5055982;28;20059;-71
2022/12/28 04:42:42;;;;;;;17.63;10.38;;;4.60;99.90;;;;;;5055542;28;20491;-71
2022/12/28 04:45:08;;;;;;;22.00;11.43;;;4.70;99.90;;;;;;5062898;28;20141;-71
2022/12/28 04:47:33;;;;;;;18.85;11.57;;;4.70;99.90;;;;;;5051830;28;20059;-71
2022/12/28 04:49:59;;;;;;;19.13;10.77;;;4.70;99.90;;;;;;5058946;28;20033;-71
2022/12/28 04:52:24;;;;;;;18.17;11.27;;;4.70;99.90;;;;;;5060656;28;20036;-71
2022/12/28 04:54:50;;;;;;;17.92;11.57;;;4.70;99.90;;;;;;5060889;28;20034;-71
2022/12/28 04:57:16;;;;;;;20.75;11.70;;;4.70;99.90;;;;;;5055913;28;20021;-71
2022/12/28 04:59:41;;;;;;;17.15;11.43;;;4.70;99.90;;;;;;5067194;28;20012;-71
2022/12/28 05:02:07;;;;;;;21.20;11.45;;;4.60;99.90;;;;;;5060801;28;20083;-71
2022/12/28 05:04:32;;;;;;;18.50;11.68;;;4.60;99.90;;;;;;5064793;28;20019;-72
2022/12/28 05:06:58;;;;;;;17.50;11.25;;;4.70;99.90;;;;;;5067509;28;20119;-71
2022/12/28 05:09:23;;;;;;;18.30;10.85;;;4.60;99.90;;;;;;5067440;28;20055;-71
2022/12/28 05:11:49;;;;;;;17.75;11.30;;;4.70;99.90;;;;;;5062808;28;20160;-71
2022/12/28 05:14:15;;;;;;;20.67;11.88;;;4.70;99.90;;;;;;5059100;28;22625;-72
2022/12/28 05:16:40;;;;;;;18.77;11.18;;;4.70;99.90;;;;;;5063935;28;20033;-71
2022/12/28 05:19:06;;;;;;;20.02;11.70;;;4.70;99.90;;;;;;5067436;28;20029;-71
2022/12/28 05:21:32;;;;;;;17.02;10.55;;;4.70;99.90;;;;;;5052354;28;20031;-72
2022/12/28 05:23:57;;;;;;;19.02;11.55;;;4.70;99.90;;;;;;5054856;28;20024;-71
2022/12/28 05:26:26;;;;;;;17.50;10.65;;;4.70;99.90;;;;;;5059156;28;20028;-72
2022/12/28 05:28:52;;;;;;;18.52;11.02;;;4.70;99.90;;;;;;5058372;28;20028;-71
2022/12/28 05:31:20;;;;;;;18.60;10.48;;;4.70;99.90;;;;;;5055948;28;20106;-71
2022/12/28 05:33:46;;;;;;;23.10;11.50;;;4.70;99.90;;;;;;5055275;28;20514;-72
2022/12/28 05:36:20;;;;;;;16.92;10.10;;;4.70;99.90;;;;;;5051348;28;20016;-71
2022/12/28 05:38:46;;;;;;;19.67;10.55;;;4.70;99.90;;;;;;5061365;28;20132;-72
2022/12/28 05:41:15;;;;;;;19.73;10.88;;;4.70;99.90;;;;;;5055568;28;20058;-72
2022/12/28 05:43:41;;;;;;;16.80;9.95;;;4.80;99.90;;;;;;5050924;28;20025;-71
2022/12/28 05:46:10;;;;;;;21.40;10.98;;;4.80;99.90;;;;;;5061133;28;20516;-71
2022/12/28 05:48:38;;;;;;;17.48;10.52;;;4.80;99.90;;;;;;5060474;28;20515;-71
2022/12/28 05:51:09;;;;;;;18.65;10.25;;;4.80;99.90;;;;;;5054049;28;20031;-71
2022/12/28 05:53:36;;;;;;;16.27;10.05;;;4.80;99.90;;;;;;5057149;28;20103;-71
2022/12/28 05:56:10;;;;;;;17.20;10.15;;;4.80;99.90;;;;;;5055615;28;20056;-71
2022/12/28 05:58:36;;;;;;;15.82;11.32;;;4.90;99.90;;;;;;5062045;28;20032;-71
2022/12/28 06:01:16;;;;;;;16.73;11.02;;;4.80;99.90;;;;;;5059307;28;20033;-71
2022/12/28 06:03:42;;;;;;;17.05;10.57;;;4.90;99.90;;;;;;5059632;28;20115;-71
2022/12/28 06:06:18;;;;;;;20.23;11.60;;;4.90;99.90;;;;;;4341633;28;10000946;-72
2022/12/28 06:08:45;;;;;;;18.42;11.57;;;4.90;99.90;;;;;;5031616;28;20041;-71
2022/12/28 06:11:17;;;;;;;18.75;11.82;;;5.00;99.90;;;;;;5021762;28;20517;-70
2022/12/28 06:13:44;;;;;;;17.87;11.43;;;5.00;99.90;;;;;;5021096;28;20037;-70
2022/12/28 06:16:11;;;;;;;17.27;11.52;;;5.00;99.90;;;;;;5034279;28;20037;-70
2022/12/28 06:18:36;;;;;;;16.58;11.05;;;5.10;99.90;;;;;;5033078;28;20075;-71
2022/12/28 06:21:17;;;;;;;19.13;11.38;;;5.10;99.90;;;;;;5036876;28;20037;-70
2022/12/28 06:23:43;;;;;;;19.35;12.30;;;5.10;99.90;;;;;;5038212;28;20240;-70
2022/12/28 06:26:11;;;;;;;20.85;12.50;;;5.10;99.90;;;;;;5043441;28;20044;-71
2022/12/28 06:28:38;;;;;;;19.60;12.57;;;5.10;99.90;;;;;;5036877;28;20033;-71
2022/12/28 06:31:06;;;;;;;19.23;12.60;;;5.10;99.90;;;;;;5028457;28;20112;-71
2022/12/28 06:33:33;;;;;;;18.85;12.57;;;5.10;99.90;;;;;;5024440;28;20549;-71
2022/12/28 06:35:58;;;;;;;21.02;13.05;;;5.20;99.90;;;;;;5025508;28;20033;-72
2022/12/28 06:38:25;;;;;;;19.20;12.10;;;5.20;99.90;;;;;;5054729;28;20045;-71
2022/12/28 06:40:52;;;;;;;24.70;11.88;;;5.20;99.90;;;;;;5062222;28;20036;-72
2022/12/28 06:43:17;;;;;;;19.02;12.20;;;5.20;99.90;;;;;;5059479;28;20024;-71
2022/12/28 06:45:53;;;;;;;21.35;12.55;;;5.20;99.90;;;;;;5061223;28;20033;-71
2022/12/28 06:48:18;;;;;;;19.33;12.63;;;5.20;99.90;;;;;;5055697;28;20442;-72
2022/12/28 06:50:54;;;;;;;20.58;13.18;;;5.20;99.90;;;;;;5064054;28;20021;-72
2022/12/28 06:53:20;;;;;;;19.42;13.20;;;5.20;99.90;;;;;;5058830;28;20115;-72
2022/12/28 06:55:55;;;;;;;22.75;14.07;;;5.20;99.90;;;;;;5061976;28;20103;-74
2022/12/28 06:58:22;;;;;;;21.45;13.15;;;5.20;99.90;;;;;;5055903;28;20524;-74
2022/12/28 07:00:47;;;;;;;20.13;12.63;;;5.20;99.90;;;;;;5060263;28;20034;-73
2022/12/28 07:03:13;;;;;;;20.73;12.93;;;5.20;99.90;;;;;;5058502;28;20024;-74
2022/12/28 07:05:39;;;;;;;19.58;13.15;;;5.20;99.90;;;;;;5058794;28;20043;-73
2022/12/28 07:08:04;;;;;;;19.80;12.68;;;5.30;99.90;;;;;;5059980;28;20028;-73
2022/12/28 07:10:32;;;;;;;18.88;12.05;;;5.30;99.90;;;;;;5064016;28;20664;-73
2022/12/28 07:12:58;;;;;;;17.25;11.57;;;5.30;99.90;;;;;;5068307;28;20052;-73
2022/12/28 07:15:24;;;;;;;18.23;13.02;;;5.30;99.90;;;;;;5056689;28;20033;-73
2022/12/28 07:17:49;;;;;;;19.52;13.27;;;5.30;99.90;;;;;;5066364;28;20449;-74
2022/12/28 07:20:15;;;;;;;22.02;13.23;;;5.30;99.90;;;;;;5062649;28;20032;-73
2022/12/28 07:22:41;;;;;;;25.15;14.98;;;5.30;99.90;;;;;;5062517;28;20029;-74
2022/12/28 07:25:07;;;;;;;21.73;14.63;;;5.30;99.90;;;;;;5058900;28;20566;-74
2022/12/28 07:27:34;;;;;;;23.92;14.15;;;5.30;99.90;;;;;;5062247;28;20017;-74
2022/12/28 07:30:00;;;;;;;22.65;14.15;;;5.30;99.90;;;;;;5059753;28;20056;-74
2022/12/28 07:32:26;;;;;;;21.40;13.25;;;5.30;99.90;;;;;;5060797;28;20391;-72
2022/12/28 07:34:51;;;;;;;20.13;12.90;;;5.30;99.90;;;;;;5061739;28;20331;-72
2022/12/28 07:37:17;;;;;;;20.05;13.50;;;5.30;99.90;;;;;;5055498;28;20496;-72
2022/12/28 07:39:43;;;;;;;18.95;12.95;;;5.30;99.90;;;;;;5065428;28;20032;-72
2022/12/28 07:42:10;;;;;;;18.67;12.88;;;5.30;99.90;;;;;;5063688;28;20159;-72
2022/12/28 07:44:37;;;;;;;20.83;13.13;;;5.30;99.90;;;;;;5074141;28;20062;-72
2022/12/28 07:47:02;;;;;;;19.75;13.13;;;5.40;99.90;;;;;;5067941;28;20044;-72
2022/12/28 07:49:28;;;;;;;19.90;12.57;;;5.30;99.90;;;;;;5058793;28;20031;-72
2022/12/28 07:51:53;;;;;;;17.85;12.23;;;5.30;99.90;;;;;;5057599;28;20028;-72
2022/12/28 07:54:19;;;;;;;24.52;14.57;;;5.40;99.90;;;;;;5062079;28;20381;-71
2022/12/28 07:56:44;;;;;;;22.15;13.90;;;5.40;99.90;;;;;;5060622;28;20102;-71
2022/12/28 07:59:12;;;;;;;21.98;13.60;;;5.40;99.90;;;;;;5065443;28;20052;-71
2022/12/28 08:01:38;;;;;;;24.25;15.82;;;5.40;99.90;;;;;;5056470;28;20132;-73
2022/12/28 08:04:10;;;;;;;20.85;12.70;;;5.40;99.90;;;;;;5058142;28;20104;-72
2022/12/28 08:06:39;;;;;;;15.13;9.35;;;5.40;99.90;;;;;;5058751;28;20115;-73
2022/12/28 08:09:07;;;;;;;22.08;12.25;;;5.40;99.90;;;;;;5060734;28;20058;-73
2022/12/28 08:11:34;;;;;;;19.92;11.20;;;5.40;99.90;;;;;;5059273;28;20115;-73
2022/12/28 08:14:01;;;;;;;16.65;11.73;;;5.50;99.90;;;;;;5047829;28;20029;-72
2022/12/28 08:16:31;;;;;;;18.15;12.30;;;5.50;99.90;;;;;;5059363;28;20024;-72
2022/12/28 08:18:57;;;;;;;17.27;11.57;;;5.50;99.90;;;;;;5057427;28;20047;-72
2022/12/28 08:21:31;;;;;;;19.10;11.45;;;5.50;99.90;;;;;;5061708;28;20036;-71
2022/12/28 08:23:58;;;;;;;21.73;11.73;;;5.50;99.90;;;;;;5055895;28;20078;-72
2022/12/28 08:26:26;;;;;;;15.15;11.10;;;5.50;99.90;;;;;;5067376;28;20456;-72
2022/12/28 08:28:54;;;;;;;20.92;12.20;;;5.50;99.90;;;;;;5056894;28;20033;-72
2022/12/28 08:31:22;;;;;;;18.40;12.15;;;5.50;99.90;;;;;;5057688;28;20025;-72
2022/12/28 08:33:48;;;;;;;16.92;11.50;;;5.50;99.90;;;;;;5056973;28;20032;-72
2022/12/28 08:36:15;;;;;;;16.20;11.52;;;5.60;99.90;;;;;;5056741;28;20115;-72
2022/12/28 08:38:42;;;;;;;14.38;11.07;;;5.60;99.90;;;;;;5061817;28;20029;-72
2022/12/28 08:41:12;;;;;;;17.13;11.13;;;5.60;99.90;;;;;;5059851;28;20056;-72
2022/12/28 08:43:37;;;;;;;16.08;10.93;;;5.60;99.90;;;;;;5058967;28;20497;-71
2022/12/28 08:46:06;;;;;;;19.92;11.23;;;5.60;99.90;;;;;;5056194;28;20086;-73
2022/12/28 08:48:32;;;;;;;17.17;11.02;;;5.60;99.90;;;;;;5058163;28;20086;-72
2022/12/28 08:51:07;;;;;;;16.50;10.63;;;5.70;99.90;;;;;;5057826;28;20028;-73
2022/12/28 08:53:33;;;;;;;19.48;11.18;;;5.70;99.90;;;;;;5056300;28;20389;-72
2022/12/28 08:56:09;;;;;;;16.48;10.85;;;5.70;99.90;;;;;;5055724;28;20034;-72
2022/12/28 08:58:34;;;;;;;17.60;10.60;;;5.70;99.90;;;;;;5060472;28;20036;-72
2022/12/28 09:01:08;;;;;;;15.82;10.98;;;5.70;99.90;;;;;;5053323;28;20062;-72
2022/12/28 09:03:40;;;;;;;18.83;10.63;;;5.80;99.90;;;;;;5051354;28;20043;-72
2022/12/28 09:06:11;;;;;;;19.15;10.52;;;5.80;99.90;;;;;;5060637;28;20116;-72
2022/12/28 09:08:37;;;;;;;16.25;10.15;;;5.80;99.90;;;;;;5055840;28;23243;-72
2022/12/28 09:11:09;;;;;;;13.63;9.95;;;5.80;99.90;;;;;;5051961;28;20052;-72
2022/12/28 09:13:36;;;;;;;17.27;10.20;;;5.80;99.90;;;;;;5057308;28;20056;-72
2022/12/28 09:16:07;;;;;;;14.20;9.70;;;5.80;99.90;;;;;;5056454;28;20523;-72
2022/12/28 09:18:34;;;;;;;14.30;9.13;;;5.80;99.90;;;;;;5054769;28;20203;-72
2022/12/28 09:21:06;;;;;;;16.98;9.65;;;5.90;99.90;;;;;;5069899;28;20057;-72
2022/12/28 09:23:32;;;;;;;16.08;9.43;;;5.90;99.90;;;;;;5061925;28;20127;-72
2022/12/28 09:26:09;;;;;;;15.38;9.75;;;5.90;99.90;;;;;;5057666;28;20112;-73
2022/12/28 09:28:35;;;;;;;18.45;11.20;;;5.90;99.90;;;;;;5061345;28;20032;-72
2022/12/28 09:31:05;;;;;;;13.48;9.15;;;5.90;99.90;;;;;;5053814;28;22053;-72
2022/12/28 09:36:16;;;;;;;14.02;8.32;;;6.00;99.90;;;;;;5057974;28;20093;-72
2022/12/28 09:38:45;;;;;;;12.68;8.13;;;6.00;99.90;;;;;;5051625;28;20036;-72
2022/12/28 09:41:25;;;;;;;14.70;7.93;;;6.00;99.90;;;;;;5050225;28;20085;-72
2022/12/28 09:44:00;;;;;;;14.73;8.63;;;6.10;99.90;;;;;;5046440;28;20043;-71
2022/12/28 09:46:26;;;;;;;13.60;7.65;;;6.00;99.90;;;;;;5059424;28;20041;-71
2022/12/28 09:48:57;;;;;;;14.48;9.23;;;6.10;99.90;;;;;;5054722;28;20072;-73
2022/12/28 09:51:32;;;;;;;14.55;8.05;;;6.10;99.90;;;;;;5055930;28;20039;-72
2022/12/28 09:53:58;;;;;;;10.93;7.38;;;6.10;99.90;;;;;;5052935;28;20108;-72
2022/12/28 09:56:34;;;;;;;11.75;7.93;;;6.10;99.90;;;;;;5060117;28;20405;-72
2022/12/28 09:59:02;;;;;;;10.32;6.85;;;6.20;99.90;;;;;;5065986;28;20085;-72
2022/12/28 10:01:28;;;;;;;10.55;7.03;;;6.20;99.90;;;;;;5063533;28;20036;-72
2022/12/28 10:03:56;;;;;;;12.38;6.90;;;6.20;99.90;;;;;;5052296;28;20085;-72
2022/12/28 10:06:25;;;;;;;10.15;6.40;;;6.30;99.90;;;;;;5066613;28;20469;-72
2022/12/28 10:09:00;;;;;;;12.38;7.13;;;6.30;99.90;;;;;;5068288;28;20033;-71
2022/12/28 10:11:31;;;;;;;10.07;6.10;;;6.30;99.90;;;;;;5066638;28;20013;-72
2022/12/28 10:13:59;;;;;;;9.80;6.78;;;6.30;99.90;;;;;;5063368;28;20923;-73
2022/12/28 10:16:31;;;;;;;9.50;6.53;;;6.40;99.90;;;;;;5056487;28;20039;-72
2022/12/28 10:18:57;;;;;;;9.82;6.70;;;6.40;99.90;;;;;;5062073;28;20033;-72
2022/12/28 10:21:29;;;;;;;17.65;7.57;;;6.40;99.90;;;;;;5063221;28;20028;-73
2022/12/28 10:23:56;;;;;;;9.55;6.43;;;6.40;99.90;;;;;;5057638;28;20032;-72
2022/12/28 10:26:21;;;;;;;11.93;5.95;;;6.40;99.90;;;;;;5059852;28;20719;-72
2022/12/28 10:28:53;;;;;;;12.30;6.18;;;6.50;99.90;;;;;;5064083;28;20043;-72
2022/12/28 10:31:39;;;;;;;8.48;5.47;;;6.50;99.90;;;;;;5059483;28;20031;-72
2022/12/28 10:34:19;;;;;;;12.05;6.30;;;6.50;99.90;;;;;;5061205;28;20108;-72
2022/12/28 10:36:46;;;;;;;9.68;6.38;;;6.60;99.90;;;;;;5066546;28;20040;-72
2022/12/28 10:39:18;;;;;;;13.63;7.00;;;6.60;99.90;;;;;;5060501;28;20116;-72
2022/12/28 10:41:44;;;;;;;9.13;6.25;;;6.60;99.90;;;;;;5060936;28;20063;-72
2022/12/28 10:44:21;;;;;;;12.55;6.88;;;6.60;99.90;;;;;;5053732;28;20085;-72
2022/12/28 10:46:53;;;;;;;9.00;5.80;;;6.60;99.90;;;;;;5071084;28;20051;-72
2022/12/28 10:49:19;;;;;;;8.25;4.13;;;6.70;99.90;;;;;;5071775;28;20032;-72
2022/12/28 10:52:14;;;;;;;9.05;5.47;;;6.70;99.90;;;;;;5061242;28;20032;-72
2022/12/28 10:54:40;;;;;;;9.93;5.13;;;6.80;99.90;;;;;;5062841;28;20581;-71
2022/12/28 10:57:23;;;;;;;10.30;4.88;;;6.90;99.90;;;;;;5064351;28;20067;-72
2022/12/28 10:59:49;;;;;;;6.88;5.00;;;6.90;99.90;;;;;;5061354;28;20435;-72
2022/12/28 11:02:26;;;;;;;9.63;5.65;;;6.90;99.90;;;;;;5067550;28;20134;-72
2022/12/28 11:05:00;;;;;;;10.18;4.65;;;6.90;99.90;;;;;;5066069;28;20094;-72
2022/12/28 11:07:34;;;;;;;8.32;5.10;;;7.00;99.90;;;;;;5069487;28;20033;-72
2022/12/28 11:10:25;;;;;;;10.32;5.20;;;7.00;99.90;;;;;;5061860;28;20112;-72
2022/12/28 11:12:54;;;;;;;9.70;4.28;;;7.00;99.90;;;;;;5067315;28;20036;-72
2022/12/28 11:15:26;;;;;;;7.32;4.47;;;7.00;99.90;;;;;;5063258;28;20024;-72
2022/12/28 11:18:12;;;;;;;8.43;5.22;;;7.00;99.90;;;;;;5076343;28;20103;-72
2022/12/28 11:20:41;;;;;;;10.50;5.80;;;7.10;99.90;;;;;;5069298;28;20031;-72
2022/12/28 11:23:10;;;;;;;7.47;4.40;;;7.10;99.90;;;;;;5066696;28;20401;-72
2022/12/28 11:25:36;;;;;;;6.80;4.40;;;7.10;99.90;;;;;;5061709;28;20568;-74
2022/12/28 11:28:11;;;;;;;7.85;4.53;;;7.10;99.90;;;;;;5069465;28;20040;-72
2022/12/28 11:30:37;;;;;;;6.93;4.30;;;7.10;99.90;;;;;;5065275;28;20047;-73
2022/12/28 11:33:08;;;;;;;7.43;4.75;;;7.10;99.90;;;;;;5070607;28;20420;-72
2022/12/28 11:35:37;;;;;;;12.07;4.93;;;7.10;99.90;;;;;;5059743;28;20041;-72
2022/12/28 11:38:05;;;;;;;6.05;4.45;;;;;;;;;;5062619;28;20709;-74
2022/12/28 11:40:43;;;;;;;10.13;4.80;;;;;;;;;;5062393;28;20028;-72
2022/12/28 11:43:29;;;;;;;8.15;4.85;;;;;;;;;;5061687;28;20029;-73
2022/12/28 11:46:03;;;;;;;9.38;5.05;;;7.30;99.90;;;;;;5046732;28;20032;-73
2022/12/28 11:48:41;;;;;;;11.07;6.15;;;7.20;99.90;;;;;;5063731;28;20040;-73
2022/12/28 11:51:17;;;;;;;10.73;4.57;;;7.30;99.90;;;;;;5069676;28;20036;-73
2022/12/28 11:53:43;;;;;;;9.45;4.68;;;7.30;99.90;;;;;;5050829;28;20094;-72
2022/12/28 11:56:10;;;;;;;11.13;5.47;;;7.30;99.90;;;;;;5065237;28;20647;-72
2022/12/28 11:58:39;;;;;;;9.50;5.43;;;7.30;99.90;;;;;;5069506;28;20028;-72
2022/12/28 12:01:05;;;;;;;10.02;4.70;;;7.30;99.90;;;;;;5064559;28;20608;-72
2022/12/28 12:03:55;;;;;;;9.65;4.93;;;7.30;99.90;;;;;;5053829;28;20025;-72
2022/12/28 12:06:47;;;;;;;8.77;4.30;;;7.20;99.90;;;;;;5070517;28;20399;-72
2022/12/28 12:09:25;;;;;;;9.43;4.00;;;7.30;99.90;;;;;;5067734;28;20032;-72
2022/12/28 12:11:58;;;;;;;9.13;4.20;;;7.30;99.90;;;;;;5077330;28;20032;-71
2022/12/28 12:14:31;;;;;;;6.80;3.83;;;7.30;99.90;;;;;;5059350;28;20385;-72
2022/12/28 12:17:15;;;;;;;7.53;3.35;;;7.40;99.90;;;;;;5066777;28;20028;-72
2022/12/28 12:19:47;;;;;;;7.93;3.65;;;7.40;99.90;;;;;;5079472;28;20052;-72
2022/12/28 12:22:22;;;;;;;8.40;3.40;;;7.50;99.90;;;;;;5058878;28;20400;-72
2022/12/28 12:24:53;;;;;;;6.55;3.78;;;7.60;99.90;;;;;;5072255;28;20033;-72
2022/12/28 12:27:49;;;;;;;7.15;3.47;;;7.60;99.90;;;;;;5067701;28;20036;-72
2022/12/28 12:30:17;;;;;;;7.15;3.08;;;7.70;99.90;;;;;;5060746;28;20074;-73
2022/12/28 12:32:45;;;;;;;11.05;3.63;;;;;;;;;;5063915;28;20528;-74
2022/12/28 12:35:26;;;;;;;5.28;3.15;;;8.10;99.90;;;;;;5070467;28;20550;-73
2022/12/28 12:38:26;;;;;;;5.70;3.05;;;8.20;99.90;;;;;;5074002;28;20050;-73
2022/12/28 12:41:35;;;;;;;8.32;3.63;;;8.20;99.90;;;;;;5048286;28;20564;-73
2022/12/28 12:44:19;;;;;;;6.30;3.03;;;8.30;99.90;;;;;;5060770;28;20086;-73
2022/12/28 12:46:54;;;;;;;4.72;2.75;;;8.20;99.90;;;;;;5062428;28;20107;-73
2022/12/28 12:49:50;;;;;;;8.05;3.17;;;8.10;99.90;;;;;;5068790;28;20106;-73
2022/12/28 12:52:27;;;;;;;7.28;2.83;;;8.00;99.90;;;;;;5078118;28;20024;-73
2022/12/28 12:55:11;;;;;;;7.00;2.97;;;8.00;99.90;;;;;;5067105;28;20051;-73
2022/12/28 12:58:04;;;;;;;8.55;2.80;;;8.00;99.90;;;;;;5071179;28;20727;-73
2022/12/28 13:00:48;;;;;;;7.03;2.80;;;8.10;99.90;;;;;;5070379;28;20031;-73
2022/12/28 13:03:39;;;;;;;7.18;2.67;;;8.00;99.90;;;;;;5072746;28;20036;-73
2022/12/28 13:06:07;;;;;;;9.45;2.88;;;8.00;99.90;;;;;;5052914;28;20024;-73
2022/12/28 13:08:48;;;;;;;5.75;2.97;;;8.10;99.90;;;;;;5073282;28;20059;-73
2022/12/28 13:11:17;;;;;;;8.35;4.05;;;8.00;99.90;;;;;;5066790;28;20025;-73
2022/12/28 13:13:46;;;;;;;7.35;3.78;;;8.00;99.90;;;;;;5048563;28;20099;-73
2022/12/28 13:16:32;;;;;;;7.78;3.83;;;7.90;99.90;;;;;;5065832;28;20040;-73
2022/12/28 13:18:58;;;;;;;7.80;3.50;;;7.90;99.90;;;;;;5065545;28;20086;-72
2022/12/28 13:21:29;;;;;;;7.75;3.63;;;7.90;99.90;;;;;;5071597;28;20111;-73
2022/12/28 13:23:55;;;;;;;6.85;2.88;;;7.90;99.90;;;;;;5061760;28;20029;-73
2022/12/28 13:26:26;;;;;;;6.82;2.90;;;7.90;99.90;;;;;;5061396;28;20032;-73
2022/12/28 13:28:56;;;;;;;8.30;2.90;;;7.90;99.90;;;;;;5069242;28;20515;-73
2022/12/28 13:31:27;;;;;;;6.85;3.08;;;7.90;99.90;;;;;;5088341;28;20028;-73